createdAt,value
2017-05-22T00:00:05.593Z,0
2017-05-22T00:01:07.433Z,0
2017-05-22T00:02:21.582Z,0
2017-05-22T00:03:23.397Z,0
2017-05-22T00:04:25.260Z,0
2017-05-22T00:05:27.101Z,0
2017-05-22T00:06:28.937Z,0
2017-05-22T00:07:30.780Z,0
2017-05-22T00:08:32.619Z,0
2017-05-22T00:09:34.838Z,0
2017-05-22T00:10:36.680Z,0
2017-05-22T00:11:50.799Z,0
2017-05-22T00:12:52.619Z,0
2017-05-22T00:13:54.441Z,0
2017-05-22T00:14:56.279Z,0
2017-05-22T00:15:58.097Z,0
2017-05-22T00:16:59.907Z,0
2017-05-22T00:18:01.724Z,0
2017-05-22T00:19:03.571Z,0
2017-05-22T00:20:05.806Z,0
2017-05-22T00:21:19.977Z,0
2017-05-22T00:22:21.822Z,0
2017-05-22T00:23:23.665Z,0
2017-05-22T00:24:25.473Z,0
2017-05-22T00:25:27.343Z,0
2017-05-22T00:26:29.192Z,0
2017-05-22T00:27:31.032Z,0
2017-05-22T00:28:32.867Z,0
2017-05-22T00:29:34.686Z,0
2017-05-22T00:30:49.290Z,0
2017-05-22T00:31:51.124Z,0
2017-05-22T00:32:52.943Z,0
2017-05-22T00:33:54.758Z,0
2017-05-22T00:34:56.599Z,0
2017-05-22T00:35:58.437Z,0
2017-05-22T00:37:00.277Z,0
2017-05-22T00:38:02.092Z,0
2017-05-22T00:39:03.931Z,0
2017-05-22T00:40:18.229Z,0
2017-05-22T00:41:20.075Z,0
2017-05-22T00:42:21.911Z,0
2017-05-22T00:43:23.755Z,0
2017-05-22T00:44:25.570Z,0
2017-05-22T00:45:27.403Z,0
2017-05-22T00:46:29.323Z,0
2017-05-22T00:47:31.167Z,0
2017-05-22T00:48:33.005Z,0
2017-05-22T00:49:47.178Z,0
2017-05-22T00:50:48.992Z,0
2017-05-22T00:51:51.235Z,0
2017-05-22T00:52:53.077Z,0
2017-05-22T00:53:54.920Z,0
2017-05-22T00:54:56.767Z,0
2017-05-22T00:55:58.596Z,0
2017-05-22T00:57:00.611Z,0
2017-05-22T00:58:02.427Z,0
2017-05-22T00:59:16.561Z,0
2017-05-22T01:00:18.389Z,0
2017-05-22T01:01:20.226Z,0
2017-05-22T01:02:22.045Z,0
2017-05-22T01:03:23.857Z,0
2017-05-22T01:04:25.679Z,0
2017-05-22T01:05:27.521Z,0
2017-05-22T01:06:29.357Z,0
2017-05-22T01:07:31.301Z,0
2017-05-22T01:08:45.420Z,0
2017-05-22T01:09:47.245Z,0
2017-05-22T01:10:49.078Z,0
2017-05-22T01:11:50.913Z,0
2017-05-22T01:12:52.784Z,0
2017-05-22T01:13:54.627Z,0
2017-05-22T01:14:56.459Z,0
2017-05-22T01:15:58.302Z,0
2017-05-22T01:17:00.140Z,0
2017-05-22T01:18:14.612Z,0
2017-05-22T01:19:16.452Z,0
2017-05-22T01:20:18.296Z,0
2017-05-22T01:21:20.136Z,0
2017-05-22T01:22:21.974Z,0
2017-05-22T01:23:23.850Z,0
2017-05-22T01:24:25.692Z,0
2017-05-22T01:25:27.540Z,0
2017-05-22T01:26:29.376Z,0
2017-05-22T01:27:43.623Z,0
2017-05-22T01:28:45.461Z,0
2017-05-22T01:29:47.277Z,0
2017-05-22T01:30:49.112Z,0
2017-05-22T01:31:50.954Z,0
2017-05-22T01:32:52.767Z,0
2017-05-22T01:33:54.608Z,0
2017-05-22T01:34:56.447Z,0
2017-05-22T01:35:58.293Z,0
2017-05-22T01:37:12.415Z,0
2017-05-22T01:38:14.255Z,0
2017-05-22T01:39:16.093Z,0
2017-05-22T01:40:17.935Z,0
2017-05-22T01:41:19.773Z,0
2017-05-22T01:42:21.588Z,0
2017-05-22T01:43:23.406Z,0
2017-05-22T01:44:25.239Z,0
2017-05-22T01:45:27.060Z,0
2017-05-22T01:46:41.241Z,0
2017-05-22T01:47:43.070Z,0
2017-05-22T01:48:44.884Z,0
2017-05-22T01:49:46.823Z,0
2017-05-22T01:50:48.660Z,0
2017-05-22T01:51:50.481Z,0
2017-05-22T01:52:52.323Z,0
2017-05-22T01:53:54.164Z,0
2017-05-22T01:54:56.279Z,0
2017-05-22T01:56:10.455Z,0
2017-05-22T01:57:12.301Z,0
2017-05-22T01:58:14.139Z,0
2017-05-22T01:59:15.983Z,0
2017-05-22T02:00:17.826Z,0
2017-05-22T02:01:19.661Z,0
2017-05-22T02:02:21.480Z,0
2017-05-22T02:03:23.294Z,0
2017-05-22T02:04:25.135Z,0
2017-05-22T02:05:39.459Z,0
2017-05-22T02:06:41.297Z,0
2017-05-22T02:07:43.119Z,0
2017-05-22T02:08:44.927Z,0
2017-05-22T02:09:46.770Z,0
2017-05-22T02:10:48.708Z,0
2017-05-22T02:11:50.523Z,0
2017-05-22T02:12:52.342Z,0
2017-05-22T02:13:54.182Z,0
2017-05-22T02:15:08.476Z,0
2017-05-22T02:16:10.293Z,0
2017-05-22T02:17:12.110Z,4
2017-05-22T02:18:13.951Z,4
2017-05-22T02:19:15.791Z,0
2017-05-22T02:20:17.626Z,0
2017-05-22T02:21:19.445Z,4
2017-05-22T02:22:21.285Z,4
2017-05-22T02:23:23.123Z,4
2017-05-22T02:24:37.297Z,4
2017-05-22T02:25:39.136Z,4
2017-05-22T02:26:41.254Z,8
2017-05-22T02:27:43.099Z,4
2017-05-22T02:28:44.936Z,8
2017-05-22T02:29:46.783Z,8
2017-05-22T02:30:48.623Z,8
2017-05-22T02:31:50.466Z,12
2017-05-22T02:32:52.303Z,12
2017-05-22T02:34:06.478Z,16
2017-05-22T02:35:08.324Z,16
2017-05-22T02:36:10.136Z,20
2017-05-22T02:37:11.984Z,24
2017-05-22T02:38:13.823Z,24
2017-05-22T02:39:15.639Z,28
2017-05-22T02:40:17.485Z,28
2017-05-22T02:41:19.323Z,36
2017-05-22T02:42:21.566Z,44
2017-05-22T02:43:35.694Z,48
2017-05-22T02:44:37.537Z,56
2017-05-22T02:45:39.349Z,60
2017-05-22T02:46:41.166Z,68
2017-05-22T02:47:43.005Z,76
2017-05-22T02:48:44.938Z,88
2017-05-22T02:49:46.754Z,96
2017-05-22T02:50:48.571Z,108
2017-05-22T02:51:50.417Z,116
2017-05-22T02:53:04.698Z,136
2017-05-22T02:54:06.542Z,144
2017-05-22T02:55:08.381Z,160
2017-05-22T02:56:10.200Z,180
2017-05-22T02:57:12.043Z,192
2017-05-22T02:58:14.287Z,216
2017-05-22T02:59:16.102Z,236
2017-05-22T03:00:17.950Z,256
2017-05-22T03:01:19.763Z,276
2017-05-22T03:02:33.940Z,308
2017-05-22T03:03:35.783Z,332
2017-05-22T03:04:37.625Z,356
2017-05-22T03:05:39.442Z,384
2017-05-22T03:06:41.289Z,420
2017-05-22T03:07:43.135Z,456
2017-05-22T03:08:45.157Z,496
2017-05-22T03:09:46.998Z,544
2017-05-22T03:10:48.839Z,588
2017-05-22T03:12:02.986Z,648
2017-05-22T03:13:04.838Z,700
2017-05-22T03:14:06.680Z,752
2017-05-22T03:15:08.523Z,808
2017-05-22T03:16:10.364Z,864
2017-05-22T03:17:12.212Z,928
2017-05-22T03:18:14.026Z,984
2017-05-22T03:19:15.895Z,1056
2017-05-22T03:20:17.752Z,1136
2017-05-22T03:21:31.882Z,1244
2017-05-22T03:22:33.725Z,1340
2017-05-22T03:23:35.574Z,1444
2017-05-22T03:24:37.523Z,1560
2017-05-22T03:25:39.341Z,1716
2017-05-22T03:26:41.186Z,1864
2017-05-22T03:27:43.030Z,2024
2017-05-22T03:28:44.855Z,2192
2017-05-22T03:29:46.908Z,2304
2017-05-22T03:31:01.082Z,2456
2017-05-22T03:32:02.927Z,2672
2017-05-22T03:33:04.747Z,2832
2017-05-22T03:34:06.569Z,2976
2017-05-22T03:35:08.417Z,3148
2017-05-22T03:36:10.241Z,3324
2017-05-22T03:37:12.061Z,3472
2017-05-22T03:38:13.883Z,3632
2017-05-22T03:39:15.699Z,3852
2017-05-22T03:40:30.106Z,4052
2017-05-22T03:41:31.951Z,4212
2017-05-22T03:42:33.774Z,4456
2017-05-22T03:43:35.624Z,4580
2017-05-22T03:44:37.474Z,4688
2017-05-22T03:45:39.423Z,4844
2017-05-22T03:46:41.276Z,5040
2017-05-22T03:47:43.090Z,5216
2017-05-22T03:48:44.944Z,5196
2017-05-22T03:49:59.250Z,4992
2017-05-22T03:51:01.105Z,5204
2017-05-22T03:52:02.954Z,5896
2017-05-22T03:53:04.807Z,6512
2017-05-22T03:54:06.658Z,6420
2017-05-22T03:55:08.512Z,6696
2017-05-22T03:56:10.353Z,7176
2017-05-22T03:57:12.180Z,7592
2017-05-22T03:58:14.000Z,7656
2017-05-22T03:59:28.131Z,8060
2017-05-22T04:00:29.979Z,8512
2017-05-22T04:01:32.229Z,8992
2017-05-22T04:02:34.053Z,9552
2017-05-22T04:03:35.881Z,9876
2017-05-22T04:04:37.736Z,9900
2017-05-22T04:05:39.590Z,10076
2017-05-22T04:06:41.539Z,10432
2017-05-22T04:07:43.388Z,10716
2017-05-22T04:08:57.523Z,10956
2017-05-22T04:09:59.376Z,11272
2017-05-22T04:11:01.204Z,11364
2017-05-22T04:12:03.404Z,11660
2017-05-22T04:13:05.233Z,12124
2017-05-22T04:14:07.080Z,12384
2017-05-22T04:15:08.910Z,12612
2017-05-22T04:16:10.765Z,12804
2017-05-22T04:17:12.622Z,12712
2017-05-22T04:18:26.756Z,13284
2017-05-22T04:19:28.609Z,13728
2017-05-22T04:20:30.465Z,13356
2017-05-22T04:21:32.300Z,12728
2017-05-22T04:22:34.548Z,12808
2017-05-22T04:23:36.378Z,13008
2017-05-22T04:24:38.234Z,13644
2017-05-22T04:25:40.066Z,14044
2017-05-22T04:26:41.925Z,13948
2017-05-22T04:27:56.159Z,14336
2017-05-22T04:28:58.014Z,14528
2017-05-22T04:29:59.869Z,15040
2017-05-22T04:31:01.698Z,15872
2017-05-22T04:32:03.556Z,16128
2017-05-22T04:33:05.615Z,16192
2017-05-22T04:34:07.466Z,16320
2017-05-22T04:35:09.292Z,15776
2017-05-22T04:36:11.122Z,15744
2017-05-22T04:37:25.239Z,16992
2017-05-22T04:38:27.091Z,18208
2017-05-22T04:39:28.955Z,18048
2017-05-22T04:40:30.798Z,17184
2017-05-22T04:41:32.634Z,16544
2017-05-22T04:42:34.490Z,16224
2017-05-22T04:43:36.348Z,16640
2017-05-22T04:44:38.201Z,17600
2017-05-22T04:45:40.056Z,18240
2017-05-22T04:46:54.193Z,18080
2017-05-22T04:47:56.057Z,18400
2017-05-22T04:48:58.316Z,18496
2017-05-22T04:50:00.165Z,17728
2017-05-22T04:51:01.999Z,17728
2017-05-22T04:52:03.857Z,18208
2017-05-22T04:53:05.707Z,18112
2017-05-22T04:54:07.569Z,17632
2017-05-22T04:55:09.426Z,17984
2017-05-22T04:56:23.613Z,16480
2017-05-22T04:57:25.471Z,15296
2017-05-22T04:58:27.324Z,14688
2017-05-22T04:59:29.237Z,14296
2017-05-22T05:00:31.099Z,16800
2017-05-22T05:01:32.953Z,18400
2017-05-22T05:02:34.819Z,17024
2017-05-22T05:03:36.638Z,15840
2017-05-22T05:04:38.484Z,14120
2017-05-22T05:05:52.595Z,13348
2017-05-22T05:06:54.424Z,13260
2017-05-22T05:07:56.289Z,10860
2017-05-22T05:08:58.140Z,8984
2017-05-22T05:10:00.091Z,9096
2017-05-22T05:11:01.952Z,8488
2017-05-22T05:12:03.801Z,8612
2017-05-22T05:13:05.664Z,8664
2017-05-22T05:14:07.514Z,7300
2017-05-22T05:15:21.822Z,10436
2017-05-22T05:16:23.681Z,10236
2017-05-22T05:17:25.530Z,11472
2017-05-22T05:18:27.358Z,12072
2017-05-22T05:19:29.209Z,10788
2017-05-22T05:20:31.087Z,11076
2017-05-22T05:21:32.913Z,11968
2017-05-22T05:22:34.772Z,8712
2017-05-22T05:23:36.619Z,14464
2017-05-22T05:24:50.752Z,16704
2017-05-22T05:25:52.581Z,14256
2017-05-22T05:26:54.422Z,9916
2017-05-22T05:27:56.255Z,7564
2017-05-22T05:28:58.107Z,7436
2017-05-22T05:29:59.961Z,7772
2017-05-22T05:31:01.915Z,8284
2017-05-22T05:32:03.760Z,8256
2017-05-22T05:33:05.584Z,8180
2017-05-22T05:34:19.766Z,8064
2017-05-22T05:35:21.620Z,7896
2017-05-22T05:36:23.775Z,7800
2017-05-22T05:37:25.621Z,7608
2017-05-22T05:38:27.450Z,7464
2017-05-22T05:39:29.299Z,7208
2017-05-22T05:40:31.157Z,7128
2017-05-22T05:41:33.001Z,7124
2017-05-22T05:42:34.852Z,7092
2017-05-22T05:43:48.955Z,7020
2017-05-22T05:44:50.805Z,7020
2017-05-22T05:45:52.626Z,6960
2017-05-22T05:46:54.853Z,6856
2017-05-22T05:47:56.702Z,6760
2017-05-22T05:48:58.531Z,6756
2017-05-22T05:50:00.376Z,6788
2017-05-22T05:51:02.226Z,6788
2017-05-22T05:52:04.179Z,6804
2017-05-22T05:53:18.311Z,6784
2017-05-22T05:54:20.154Z,6828
2017-05-22T05:55:22.005Z,6936
2017-05-22T05:56:23.831Z,7036
2017-05-22T05:57:26.023Z,7244
2017-05-22T05:58:27.889Z,7528
2017-05-22T05:59:29.714Z,7780
2017-05-22T06:00:31.544Z,8028
2017-05-22T06:01:33.388Z,8144
2017-05-22T06:02:47.521Z,8308
2017-05-22T06:03:49.374Z,8292
2017-05-22T06:04:51.220Z,8412
2017-05-22T06:05:53.067Z,8380
2017-05-22T06:06:54.916Z,8516
2017-05-22T06:07:57.147Z,8492
2017-05-22T06:08:58.969Z,8540
2017-05-22T06:10:00.811Z,8560
2017-05-22T06:11:02.639Z,8588
2017-05-22T06:12:16.877Z,8564
2017-05-22T06:13:18.731Z,8504
2017-05-22T06:14:20.578Z,8412
2017-05-22T06:15:22.402Z,8288
2017-05-22T06:16:24.230Z,8172
2017-05-22T06:17:26.081Z,8044
2017-05-22T06:18:27.956Z,7924
2017-05-22T06:19:29.805Z,7748
2017-05-22T06:20:31.652Z,7536
2017-05-22T06:21:45.786Z,7448
2017-05-22T06:22:47.632Z,7472
2017-05-22T06:23:49.861Z,7400
2017-05-22T06:24:51.711Z,7348
2017-05-22T06:25:53.557Z,7392
2017-05-22T06:26:55.409Z,7428
2017-05-22T06:27:57.264Z,7516
2017-05-22T06:28:59.130Z,7596
2017-05-22T06:30:00.983Z,7656
2017-05-22T06:31:15.164Z,7560
2017-05-22T06:32:17.010Z,7464
2017-05-22T06:33:18.835Z,7440
2017-05-22T06:34:20.984Z,7448
2017-05-22T06:35:22.837Z,7420
2017-05-22T06:36:24.682Z,7376
2017-05-22T06:37:26.533Z,7336
2017-05-22T06:38:28.385Z,7340
2017-05-22T06:39:30.238Z,7388
2017-05-22T06:40:44.417Z,7536
2017-05-22T06:41:46.243Z,7624
2017-05-22T06:42:48.092Z,7732
2017-05-22T06:43:49.961Z,7780
2017-05-22T06:44:51.784Z,7784
2017-05-22T06:45:53.639Z,7816
2017-05-22T06:46:55.462Z,7820
2017-05-22T06:47:57.309Z,7916
2017-05-22T06:48:59.157Z,7984
2017-05-22T06:50:13.365Z,7988
2017-05-22T06:51:15.212Z,7864
2017-05-22T06:52:17.031Z,7828
2017-05-22T06:53:18.858Z,7900
2017-05-22T06:54:20.706Z,8008
2017-05-22T06:55:22.858Z,8184
2017-05-22T06:56:24.706Z,8276
2017-05-22T06:57:26.532Z,8332
2017-05-22T06:58:28.346Z,8344
2017-05-22T06:59:42.479Z,8336
2017-05-22T07:00:44.298Z,8364
2017-05-22T07:01:46.155Z,8368
2017-05-22T07:02:48.007Z,8404
2017-05-22T07:03:49.856Z,8492
2017-05-22T07:04:51.708Z,8564
2017-05-22T07:05:53.578Z,8628
2017-05-22T07:06:55.435Z,8708
2017-05-22T07:07:57.281Z,8748
2017-05-22T07:09:11.458Z,8808
2017-05-22T07:10:13.315Z,8828
2017-05-22T07:11:15.340Z,8816
2017-05-22T07:12:17.189Z,8728
2017-05-22T07:13:19.041Z,8612
2017-05-22T07:14:20.891Z,8496
2017-05-22T07:15:22.712Z,8404
2017-05-22T07:16:24.581Z,8372
2017-05-22T07:17:26.406Z,8460
2017-05-22T07:18:40.538Z,8580
2017-05-22T07:19:42.390Z,8648
2017-05-22T07:20:44.245Z,8704
2017-05-22T07:21:46.195Z,8732
2017-05-22T07:22:48.043Z,8772
2017-05-22T07:23:49.892Z,8756
2017-05-22T07:24:51.749Z,8748
2017-05-22T07:25:53.570Z,8744
2017-05-22T07:26:55.825Z,8744
2017-05-22T07:28:09.955Z,8672
2017-05-22T07:29:11.814Z,8500
2017-05-22T07:30:13.664Z,8348
2017-05-22T07:31:15.511Z,8288
2017-05-22T07:32:17.363Z,8304
2017-05-22T07:33:19.219Z,8400
2017-05-22T07:34:21.064Z,8444
2017-05-22T07:35:22.892Z,8460
2017-05-22T07:36:24.737Z,8540
2017-05-22T07:37:39.328Z,8692
2017-05-22T07:38:41.173Z,8768
2017-05-22T07:39:43.021Z,8744
2017-05-22T07:40:44.870Z,8640
2017-05-22T07:41:46.692Z,8524
2017-05-22T07:42:48.639Z,8476
2017-05-22T07:43:50.492Z,8488
2017-05-22T07:44:52.349Z,8576
2017-05-22T07:45:54.171Z,8704
2017-05-22T07:47:08.648Z,8884
2017-05-22T07:48:10.467Z,8940
2017-05-22T07:49:12.292Z,9008
2017-05-22T07:50:14.116Z,9096
2017-05-22T07:51:15.940Z,9136
2017-05-22T07:52:17.793Z,9208
2017-05-22T07:53:19.846Z,9224
2017-05-22T07:54:21.699Z,9176
2017-05-22T07:55:23.606Z,9104
2017-05-22T07:56:37.693Z,9068
2017-05-22T07:57:39.542Z,9052
2017-05-22T07:58:41.466Z,9060
2017-05-22T07:59:43.320Z,9016
2017-05-22T08:00:45.180Z,8960
2017-05-22T08:01:47.020Z,8896
2017-05-22T08:02:48.849Z,8804
2017-05-22T08:03:50.904Z,8712
2017-05-22T08:04:52.753Z,8700
2017-05-22T08:06:06.875Z,8636
2017-05-22T08:07:08.704Z,8592
2017-05-22T08:08:10.528Z,8664
2017-05-22T08:09:12.376Z,8764
2017-05-22T08:10:14.229Z,8908
2017-05-22T08:11:16.077Z,9152
2017-05-22T08:12:17.928Z,9360
2017-05-22T08:13:19.781Z,9496
2017-05-22T08:14:22.006Z,9668
2017-05-22T08:15:36.194Z,9868
2017-05-22T08:16:38.038Z,10024
2017-05-22T08:17:39.871Z,10192
2017-05-22T08:18:41.750Z,10328
2017-05-22T08:19:43.683Z,10472
2017-05-22T08:20:45.535Z,10604
2017-05-22T08:21:47.361Z,10668
2017-05-22T08:22:49.216Z,10724
2017-05-22T08:23:51.064Z,10780
2017-05-22T08:25:05.200Z,10788
2017-05-22T08:26:07.049Z,10836
2017-05-22T08:27:08.903Z,10892
2017-05-22T08:28:10.734Z,10996
2017-05-22T08:29:12.616Z,11052
2017-05-22T08:30:14.633Z,11184
2017-05-22T08:31:16.474Z,11296
2017-05-22T08:32:18.318Z,11424
2017-05-22T08:33:20.173Z,11532
2017-05-22T08:34:34.707Z,11704
2017-05-22T08:35:36.554Z,11884
2017-05-22T08:36:38.421Z,11924
2017-05-22T08:37:40.267Z,11964
2017-05-22T08:38:42.088Z,11984
2017-05-22T08:39:43.918Z,12024
2017-05-22T08:40:45.784Z,12044
2017-05-22T08:41:47.618Z,12060
2017-05-22T08:42:49.469Z,12100
2017-05-22T08:44:03.626Z,12120
2017-05-22T08:45:05.482Z,12084
2017-05-22T08:46:07.536Z,11980
2017-05-22T08:47:09.409Z,11828
2017-05-22T08:48:11.238Z,11668
2017-05-22T08:49:13.091Z,11556
2017-05-22T08:50:14.941Z,11424
2017-05-22T08:51:16.825Z,11336
2017-05-22T08:52:18.648Z,11328
2017-05-22T08:53:32.785Z,11312
2017-05-22T08:54:34.638Z,11332
2017-05-22T08:55:36.492Z,11432
2017-05-22T08:56:38.699Z,11564
2017-05-22T08:57:40.543Z,11660
2017-05-22T08:58:42.405Z,11760
2017-05-22T08:59:44.254Z,11828
2017-05-22T09:00:46.089Z,11936
2017-05-22T09:01:48.045Z,12076
2017-05-22T09:03:02.174Z,12044
2017-05-22T09:04:04.034Z,12084
2017-05-22T09:05:05.884Z,11928
2017-05-22T09:06:07.746Z,11836
2017-05-22T09:07:09.623Z,11856
2017-05-22T09:08:11.474Z,11920
2017-05-22T09:09:13.324Z,12004
2017-05-22T09:10:15.180Z,12144
2017-05-22T09:11:17.005Z,12360
2017-05-22T09:12:35.178Z,12676
2017-05-22T09:13:37.033Z,12908
2017-05-22T09:14:40.882Z,13180
2017-05-22T09:15:45.122Z,13424
2017-05-22T09:16:53.220Z,13716
2017-05-22T09:17:55.705Z,13904
2017-05-22T09:18:57.757Z,13980
2017-05-22T09:20:00.188Z,13928
2017-05-22T09:21:03.661Z,13928
2017-05-22T09:22:18.003Z,14036
2017-05-22T09:23:20.462Z,14036
2017-05-22T09:24:22.319Z,14016
2017-05-22T09:25:25.350Z,13984
2017-05-22T09:26:27.791Z,13912
2017-05-22T09:27:31.258Z,13824
2017-05-22T09:28:33.109Z,13760
2017-05-22T09:29:34.943Z,13632
2017-05-22T09:30:36.798Z,13524
2017-05-22T09:31:50.935Z,13356
2017-05-22T09:32:52.766Z,13224
2017-05-22T09:33:54.870Z,13088
2017-05-22T09:34:56.731Z,12996
2017-05-22T09:35:58.582Z,12836
2017-05-22T09:37:00.411Z,12604
2017-05-22T09:38:02.267Z,12380
2017-05-22T09:39:04.322Z,12156
2017-05-22T09:40:06.153Z,11956
2017-05-22T09:41:20.284Z,11812
2017-05-22T09:42:22.136Z,11780
2017-05-22T09:43:23.997Z,11796
2017-05-22T09:44:25.872Z,11884
2017-05-22T09:45:27.730Z,12000
2017-05-22T09:46:29.578Z,12124
2017-05-22T09:47:31.410Z,12228
2017-05-22T09:48:33.260Z,12316
2017-05-22T09:49:35.115Z,12384
2017-05-22T09:50:49.227Z,12476
2017-05-22T09:51:51.078Z,12572
2017-05-22T09:52:52.936Z,12716
2017-05-22T09:53:54.762Z,12848
2017-05-22T09:54:56.621Z,12932
2017-05-22T09:55:58.467Z,12980
2017-05-22T09:57:00.300Z,12972
2017-05-22T09:58:02.152Z,12992
2017-05-22T09:59:04.005Z,13028
2017-05-22T10:00:18.438Z,13048
2017-05-22T10:01:20.292Z,13056
2017-05-22T10:02:22.147Z,13064
2017-05-22T10:03:23.973Z,13052
2017-05-22T10:04:25.829Z,13012
2017-05-22T10:05:27.962Z,13008
2017-05-22T10:06:29.806Z,13016
2017-05-22T10:07:31.637Z,13028
2017-05-22T10:08:33.487Z,13016
2017-05-22T10:09:47.860Z,12944
2017-05-22T10:10:49.750Z,12860
2017-05-22T10:11:51.594Z,12760
2017-05-22T10:12:53.445Z,12672
2017-05-22T10:13:55.298Z,12588
2017-05-22T10:14:57.120Z,12496
2017-05-22T10:15:58.996Z,12420
2017-05-22T10:17:00.825Z,12320
2017-05-22T10:18:02.676Z,12200
2017-05-22T10:19:16.790Z,12076
2017-05-22T10:20:18.642Z,11960
2017-05-22T10:21:20.504Z,11872
2017-05-22T10:22:22.328Z,11804
2017-05-22T10:23:24.183Z,11764
2017-05-22T10:24:26.008Z,11716
2017-05-22T10:25:27.838Z,11660
2017-05-22T10:26:29.696Z,11608
2017-05-22T10:27:31.552Z,11564
2017-05-22T10:28:45.684Z,11496
2017-05-22T10:29:47.518Z,11460
2017-05-22T10:30:49.372Z,11400
2017-05-22T10:31:51.225Z,11340
2017-05-22T10:32:53.084Z,11284
2017-05-22T10:33:54.932Z,11264
2017-05-22T10:34:56.807Z,11268
2017-05-22T10:35:58.666Z,11308
2017-05-22T10:37:00.720Z,11340
2017-05-22T10:38:14.900Z,11392
2017-05-22T10:39:16.729Z,11468
2017-05-22T10:40:18.564Z,11548
2017-05-22T10:41:20.413Z,11604
2017-05-22T10:42:22.267Z,11632
2017-05-22T10:43:24.123Z,11668
2017-05-22T10:44:25.977Z,11724
2017-05-22T10:45:27.805Z,11776
2017-05-22T10:46:29.688Z,11820
2017-05-22T10:47:43.901Z,11892
2017-05-22T10:48:45.753Z,11944
2017-05-22T10:49:47.608Z,12020
2017-05-22T10:50:49.434Z,12100
2017-05-22T10:51:51.300Z,12180
2017-05-22T10:52:53.153Z,12272
2017-05-22T10:53:55.005Z,12356
2017-05-22T10:54:56.835Z,12456
2017-05-22T10:55:58.659Z,12552
2017-05-22T10:57:13.097Z,12704
2017-05-22T10:58:14.952Z,12828
2017-05-22T10:59:16.808Z,12984
2017-05-22T11:00:18.635Z,13160
2017-05-22T11:01:20.490Z,13340
2017-05-22T11:02:22.344Z,13544
2017-05-22T11:03:24.503Z,13772
2017-05-22T11:04:26.348Z,14008
2017-05-22T11:05:28.189Z,14236
2017-05-22T11:06:42.304Z,14520
2017-05-22T11:07:44.170Z,14700
2017-05-22T11:08:46.020Z,14888
2017-05-22T11:09:47.848Z,15048
2017-05-22T11:10:49.708Z,15156
2017-05-22T11:11:51.560Z,15228
2017-05-22T11:12:53.414Z,15304
2017-05-22T11:13:55.276Z,15360
2017-05-22T11:14:57.126Z,15388
2017-05-22T11:16:11.291Z,15392
2017-05-22T11:17:13.139Z,15376
2017-05-22T11:18:14.973Z,15348
2017-05-22T11:19:16.929Z,15316
2017-05-22T11:20:18.782Z,15284
2017-05-22T11:21:20.609Z,15244
2017-05-22T11:22:22.464Z,15228
2017-05-22T11:23:24.296Z,15212
2017-05-22T11:24:26.153Z,15172
2017-05-22T11:25:40.292Z,15104
2017-05-22T11:26:42.145Z,15036
2017-05-22T11:27:43.972Z,14952
2017-05-22T11:28:45.832Z,14868
2017-05-22T11:29:47.685Z,14804
2017-05-22T11:30:49.546Z,14744
2017-05-22T11:31:51.397Z,14684
2017-05-22T11:32:53.256Z,14620
2017-05-22T11:33:55.092Z,14568
2017-05-22T11:35:09.428Z,14488
2017-05-22T11:36:11.255Z,14424
2017-05-22T11:37:13.112Z,14368
2017-05-22T11:38:14.966Z,14312
2017-05-22T11:39:16.817Z,14256
2017-05-22T11:40:18.849Z,14196
2017-05-22T11:41:20.672Z,14164
2017-05-22T11:42:22.502Z,14132
2017-05-22T11:43:24.362Z,14104
2017-05-22T11:44:38.703Z,14124
2017-05-22T11:45:40.557Z,14168
2017-05-22T11:46:42.412Z,14224
2017-05-22T11:47:44.268Z,14308
2017-05-22T11:48:46.123Z,14412
2017-05-22T11:49:47.980Z,14524
2017-05-22T11:50:49.833Z,14660
2017-05-22T11:51:51.667Z,14820
2017-05-22T11:52:53.494Z,14996
2017-05-22T11:54:07.629Z,15224
2017-05-22T11:55:09.461Z,15404
2017-05-22T11:56:11.318Z,15592
2017-05-22T11:57:13.169Z,15780
2017-05-22T11:58:15.029Z,15952
2017-05-22T11:59:16.880Z,16108
2017-05-22T12:00:18.735Z,16352
2017-05-22T12:01:20.664Z,16480
2017-05-22T12:02:22.511Z,16544
2017-05-22T12:03:36.633Z,16640
2017-05-22T12:04:38.460Z,16704
2017-05-22T12:05:40.313Z,16736
2017-05-22T12:06:42.472Z,16800
2017-05-22T12:07:44.337Z,16896
2017-05-22T12:08:46.159Z,16992
2017-05-22T12:09:48.015Z,17088
2017-05-22T12:10:49.868Z,17216
2017-05-22T12:11:51.726Z,17344
2017-05-22T12:13:05.864Z,17504
2017-05-22T12:14:07.727Z,17568
2017-05-22T12:15:09.578Z,17664
2017-05-22T12:16:11.431Z,17728
2017-05-22T12:17:13.312Z,17824
2017-05-22T12:18:15.143Z,17824
2017-05-22T12:19:17.048Z,17952
2017-05-22T12:20:18.875Z,18016
2017-05-22T12:21:20.709Z,18080
2017-05-22T12:22:35.049Z,18048
2017-05-22T12:23:36.906Z,18048
2017-05-22T12:24:38.765Z,17952
2017-05-22T12:25:40.619Z,17856
2017-05-22T12:26:42.443Z,17760
2017-05-22T12:27:44.332Z,17600
2017-05-22T12:28:46.187Z,17472
2017-05-22T12:29:48.038Z,17312
2017-05-22T12:30:49.896Z,17152
2017-05-22T12:32:07.243Z,16960
2017-05-22T12:33:09.101Z,16832
2017-05-22T12:34:10.930Z,16736
2017-05-22T12:35:12.791Z,16704
2017-05-22T12:36:14.644Z,16576
2017-05-22T12:37:16.503Z,16480
2017-05-22T12:38:18.357Z,16416
2017-05-22T12:39:20.219Z,16320
2017-05-22T12:40:22.081Z,16092
2017-05-22T12:41:36.217Z,15972
2017-05-22T12:42:38.074Z,15944
2017-05-22T12:43:40.028Z,15944
2017-05-22T12:44:41.890Z,15972
2017-05-22T12:45:43.745Z,16224
2017-05-22T12:46:45.801Z,16384
2017-05-22T12:47:47.636Z,16544
2017-05-22T12:48:49.701Z,16704
2017-05-22T12:49:51.550Z,16864
2017-05-22T12:51:05.688Z,17024
2017-05-22T12:52:07.550Z,17152
2017-05-22T12:53:09.405Z,17280
2017-05-22T12:54:11.260Z,17344
2017-05-22T12:55:13.117Z,17536
2017-05-22T12:56:14.973Z,17664
2017-05-22T12:57:16.835Z,17760
2017-05-22T12:58:18.695Z,17824
2017-05-22T12:59:20.549Z,17952
2017-05-22T13:00:34.734Z,17984
2017-05-22T13:01:36.562Z,18048
2017-05-22T13:02:38.422Z,18048
2017-05-22T13:03:40.276Z,18016
2017-05-22T13:04:42.188Z,17920
2017-05-22T13:05:44.043Z,17824
2017-05-22T13:06:45.879Z,17664
2017-05-22T13:07:47.711Z,17472
2017-05-22T13:08:49.563Z,17280
2017-05-22T13:10:03.731Z,16992
2017-05-22T13:11:05.586Z,16736
2017-05-22T13:12:07.447Z,16480
2017-05-22T13:13:09.310Z,16120
2017-05-22T13:14:11.169Z,15896
2017-05-22T13:15:16.225Z,15648
2017-05-22T13:16:18.081Z,15420
2017-05-22T13:17:19.942Z,15176
2017-05-22T13:18:21.800Z,14988
2017-05-22T13:19:35.935Z,14772
2017-05-22T13:20:37.795Z,14608
2017-05-22T13:21:39.652Z,14408
2017-05-22T13:22:41.482Z,14192
2017-05-22T13:23:43.341Z,13988
2017-05-22T13:24:45.168Z,13800
2017-05-22T13:25:47.026Z,13620
2017-05-22T13:26:48.879Z,13472
2017-05-22T13:27:50.714Z,13328
2017-05-22T13:29:04.906Z,13160
2017-05-22T13:30:06.768Z,13016
2017-05-22T13:31:08.623Z,12848
2017-05-22T13:32:10.482Z,12728
2017-05-22T13:33:12.334Z,12588
2017-05-22T13:34:14.159Z,12504
2017-05-22T13:35:15.996Z,12400
2017-05-22T13:36:17.846Z,12304
2017-05-22T13:37:19.676Z,12264
2017-05-22T13:38:33.862Z,12272
2017-05-22T13:39:35.695Z,12324
2017-05-22T13:40:37.554Z,12412
2017-05-22T13:41:39.408Z,12512
2017-05-22T13:42:41.271Z,12668
2017-05-22T13:43:43.102Z,12836
2017-05-22T13:44:44.961Z,13012
2017-05-22T13:45:46.809Z,13220
2017-05-22T13:46:48.673Z,13476
2017-05-22T13:48:02.860Z,13848
2017-05-22T13:49:04.689Z,14140
2017-05-22T13:50:06.545Z,14440
2017-05-22T13:51:08.411Z,14716
2017-05-22T13:52:10.267Z,15000
2017-05-22T13:53:12.097Z,15232
2017-05-22T13:54:13.952Z,15412
2017-05-22T13:55:15.805Z,15564
2017-05-22T13:56:17.633Z,15672
2017-05-22T13:57:32.173Z,15772
2017-05-22T13:58:34.032Z,15796
2017-05-22T13:59:35.869Z,15792
2017-05-22T14:00:37.694Z,15804
2017-05-22T14:01:39.553Z,15796
2017-05-22T14:02:41.597Z,15748
2017-05-22T14:03:43.448Z,15700
2017-05-22T14:04:45.282Z,15628